createdAt,value
2023-08-20T00:01:13.458Z,100.00
2023-08-20T00:04:15.855Z,100.00
2023-08-20T00:07:19.438Z,100.00
2023-08-20T00:10:21.183Z,100.00
2023-08-20T00:13:22.766Z,100.00
2023-08-20T00:16:24.562Z,100.00
2023-08-20T00:19:26.392Z,100.00
2023-08-20T00:22:28.178Z,100.00
2023-08-20T00:25:30.039Z,100.00
2023-08-20T00:28:31.730Z,100.00
2023-08-20T00:31:33.358Z,100.00
2023-08-20T00:34:35.225Z,100.00
2023-08-20T00:37:37.107Z,100.00
2023-08-20T00:40:39.055Z,100.00
2023-08-20T00:43:40.597Z,100.00
2023-08-20T00:46:42.380Z,100.00
2023-08-20T00:49:43.985Z,100.00
2023-08-20T00:52:46.685Z,100.00
2023-08-20T00:55:48.727Z,100.00
2023-08-20T00:58:50.948Z,100.00
2023-08-20T01:01:52.571Z,100.00
2023-08-20T01:04:54.191Z,100.00
2023-08-20T01:08:14.174Z,100.00
2023-08-20T01:11:28.042Z,100.00
2023-08-20T01:14:29.664Z,100.00
2023-08-20T01:17:32.146Z,100.00
2023-08-20T01:20:40.392Z,100.00
2023-08-20T01:24:00.665Z,100.00
2023-08-20T01:27:20.770Z,100.00
2023-08-20T01:30:22.745Z,100.00
2023-08-20T01:33:26.236Z,100.00
2023-08-20T01:36:27.822Z,100.00
2023-08-20T01:39:29.396Z,100.00
2023-08-20T01:42:30.887Z,100.00
2023-08-20T01:45:32.405Z,100.00
2023-08-20T01:48:33.982Z,100.00
2023-08-20T01:51:37.521Z,100.00
2023-08-20T01:54:39.053Z,100.00
2023-08-20T01:57:40.584Z,100.00
2023-08-20T02:00:42.158Z,100.00
2023-08-20T02:03:43.721Z,100.00
2023-08-20T02:06:45.231Z,100.00
2023-08-20T02:09:49.651Z,100.00
2023-08-20T02:12:51.237Z,100.00
2023-08-20T02:16:03.485Z,100.00
2023-08-20T02:19:06.777Z,100.00
2023-08-20T02:22:08.375Z,100.00
2023-08-20T02:25:09.932Z,100.00
2023-08-20T02:28:11.536Z,100.00
2023-08-20T02:31:14.152Z,100.00
2023-08-20T02:34:15.739Z,100.00
2023-08-20T02:37:17.295Z,100.00
2023-08-20T02:40:20.069Z,100.00
2023-08-20T02:43:21.610Z,100.00
2023-08-20T02:46:23.171Z,100.00
2023-08-20T02:49:24.757Z,100.00
2023-08-20T02:52:26.243Z,100.00
2023-08-20T02:55:27.812Z,100.00
2023-08-20T02:58:29.369Z,100.00
2023-08-20T03:01:31.690Z,100.00
2023-08-20T03:04:33.362Z,100.00
2023-08-20T03:07:35.188Z,100.00
2023-08-20T03:10:37.008Z,100.00
2023-08-20T03:13:38.638Z,100.00
2023-08-20T03:16:40.215Z,100.00
2023-08-20T03:19:58.663Z,100.00
2023-08-20T03:23:00.259Z,100.00
2023-08-20T03:26:01.826Z,100.00
2023-08-20T03:29:04.351Z,100.00
2023-08-20T03:32:06.108Z,100.00
2023-08-20T03:35:07.987Z,100.00
2023-08-20T03:38:09.718Z,100.00
2023-08-20T03:41:11.914Z,100.00
2023-08-20T03:44:13.688Z,100.00
2023-08-20T03:47:16.792Z,100.00
2023-08-20T03:50:18.374Z,100.00
2023-08-20T03:53:20.432Z,100.00
2023-08-20T03:56:21.956Z,100.00
2023-08-20T03:59:23.504Z,100.00
2023-08-20T04:02:25.071Z,100.00
2023-08-20T04:05:26.652Z,100.00
2023-08-20T04:08:28.392Z,100.00
2023-08-20T04:11:30.585Z,100.00
2023-08-20T04:14:32.215Z,100.00
2023-08-20T04:17:34.001Z,100.00
2023-08-20T04:20:35.985Z,100.00
2023-08-20T04:23:38.334Z,100.00
2023-08-20T04:26:39.866Z,100.00
2023-08-20T04:29:41.454Z,100.00
2023-08-20T04:32:43.115Z,100.00
2023-08-20T04:35:44.693Z,100.00
2023-08-20T04:38:46.239Z,100.00
2023-08-20T04:41:48.239Z,100.00
2023-08-20T04:44:53.016Z,100.00
2023-08-20T04:47:54.964Z,100.00
2023-08-20T04:50:56.594Z,100.00
2023-08-20T04:53:58.125Z,100.00
2023-08-20T04:56:59.679Z,100.00
2023-08-20T05:00:02.138Z,100.00
2023-08-20T05:03:18.996Z,100.00
2023-08-20T05:06:20.852Z,100.00
2023-08-20T05:09:23.068Z,100.00
2023-08-20T05:12:24.773Z,100.00
2023-08-20T05:15:26.310Z,100.00
2023-08-20T05:18:28.106Z,100.00
2023-08-20T05:21:29.962Z,100.00
2023-08-20T05:24:32.150Z,100.00
2023-08-20T05:27:35.121Z,100.00
2023-08-20T05:30:38.826Z,100.00
2023-08-20T05:33:40.422Z,100.00
2023-08-20T05:36:43.334Z,100.00
2023-08-20T05:39:45.685Z,100.00
2023-08-20T05:42:50.563Z,100.00
2023-08-20T05:45:53.840Z,100.00
2023-08-20T05:48:57.773Z,100.00
2023-08-20T05:52:00.740Z,100.00
2023-08-20T05:55:04.273Z,100.00
2023-08-20T05:58:06.053Z,100.00
2023-08-20T06:01:08.546Z,100.00
2023-08-20T06:04:10.587Z,100.00
2023-08-20T06:07:12.167Z,100.00
2023-08-20T06:10:13.763Z,100.00
2023-08-20T06:13:15.395Z,100.00
2023-08-20T06:16:16.924Z,100.00
2023-08-20T06:19:18.618Z,100.00
2023-08-20T06:22:20.164Z,100.00
2023-08-20T06:25:21.706Z,100.00
2023-08-20T06:28:23.231Z,100.00
2023-08-20T06:31:24.831Z,100.00
2023-08-20T06:34:26.352Z,100.00
2023-08-20T06:37:27.904Z,100.00
2023-08-20T06:40:29.596Z,100.00
2023-08-20T06:43:31.144Z,95.33
2023-08-20T06:46:32.725Z,90.20
2023-08-20T06:49:34.255Z,87.35
2023-08-20T06:52:35.853Z,85.75
2023-08-20T06:55:37.610Z,84.62
2023-08-20T06:58:40.800Z,84.07
2023-08-20T07:01:42.478Z,83.46
2023-08-20T07:04:44.033Z,81.77
2023-08-20T07:07:46.622Z,79.60
2023-08-20T07:10:48.197Z,79.66
2023-08-20T07:13:49.729Z,77.93
2023-08-20T07:16:51.258Z,74.32
2023-08-20T07:19:52.835Z,72.06
2023-08-20T07:22:54.791Z,70.92
2023-08-20T07:26:13.057Z,69.92
2023-08-20T07:29:14.575Z,69.29
2023-08-20T07:32:16.113Z,69.55
2023-08-20T07:35:17.676Z,69.80
2023-08-20T07:38:19.219Z,68.75
2023-08-20T07:41:21.475Z,68.93
2023-08-20T07:44:23.046Z,69.19
2023-08-20T07:47:24.623Z,68.96
2023-08-20T07:50:26.156Z,68.11
2023-08-20T07:53:27.718Z,67.46
2023-08-20T07:56:30.299Z,65.63
2023-08-20T07:59:31.835Z,65.51
2023-08-20T08:02:33.359Z,66.11
2023-08-20T08:05:34.888Z,65.49
2023-08-20T08:08:36.455Z,64.66
2023-08-20T08:11:37.980Z,63.94
2023-08-20T08:14:39.511Z,63.17
2023-08-20T08:17:41.102Z,62.70
2023-08-20T08:20:43.029Z,61.98
2023-08-20T08:23:44.535Z,61.11
2023-08-20T08:26:46.093Z,60.95
2023-08-20T08:29:47.612Z,60.59
2023-08-20T08:32:49.451Z,59.91
2023-08-20T08:35:51.044Z,59.65
2023-08-20T08:38:53.605Z,59.41
2023-08-20T08:42:01.748Z,59.44
2023-08-20T08:45:04.216Z,59.18
2023-08-20T08:48:06.293Z,59.11
2023-08-20T08:51:07.911Z,59.09
2023-08-20T08:54:10.166Z,58.92
2023-08-20T08:57:12.243Z,57.93
2023-08-20T09:00:14.408Z,58.15
2023-08-20T09:03:16.182Z,57.51
2023-08-20T09:06:17.731Z,58.05
2023-08-20T09:09:20.929Z,57.77
2023-08-20T09:12:22.486Z,57.39
2023-08-20T09:15:33.057Z,57.36
2023-08-20T09:18:42.491Z,56.98
2023-08-20T09:21:48.041Z,57.50
2023-08-20T09:24:57.181Z,57.61
2023-08-20T09:27:58.809Z,57.56
2023-08-20T09:31:04.039Z,57.91
2023-08-20T09:34:05.841Z,58.08
2023-08-20T09:37:11.710Z,58.70
2023-08-20T09:40:13.356Z,58.66
2023-08-20T09:43:16.854Z,58.83
2023-08-20T09:46:20.533Z,59.36
2023-08-20T09:49:24.106Z,58.87
2023-08-20T09:52:29.184Z,58.08
2023-08-20T09:55:35.642Z,57.91
2023-08-20T09:58:39.299Z,57.79
2023-08-20T10:01:41.869Z,58.05
2023-08-20T10:04:44.767Z,57.85
2023-08-20T10:07:46.918Z,57.29
2023-08-20T10:10:48.455Z,57.42
2023-08-20T10:13:50.365Z,56.56
2023-08-20T10:16:54.018Z,56.54
2023-08-20T10:19:58.705Z,55.75
2023-08-20T10:23:04.544Z,56.30
2023-08-20T10:26:12.441Z,56.17
2023-08-20T10:29:39.759Z,56.27
2023-08-20T10:32:45.037Z,57.22
2023-08-20T10:35:46.755Z,58.53
2023-08-20T10:38:48.558Z,57.93
2023-08-20T10:42:20.630Z,56.35
2023-08-20T10:45:22.326Z,56.34
2023-08-20T10:48:25.412Z,56.41
2023-08-20T10:51:33.081Z,55.68
2023-08-20T10:54:35.492Z,55.81
2023-08-20T10:57:37.737Z,54.70
2023-08-20T11:00:39.618Z,52.90
2023-08-20T11:03:42.625Z,52.37
2023-08-20T11:06:45.197Z,51.61
2023-08-20T11:09:48.179Z,51.86
2023-08-20T11:12:49.708Z,51.70
2023-08-20T11:15:51.291Z,51.39
2023-08-20T11:18:54.549Z,50.90
2023-08-20T11:21:56.165Z,50.91
2023-08-20T11:24:57.701Z,50.85
2023-08-20T11:27:59.253Z,50.26
2023-08-20T11:31:02.388Z,50.44
2023-08-20T11:34:04.836Z,50.28
2023-08-20T11:37:07.216Z,49.78
2023-08-20T11:40:09.346Z,49.90
2023-08-20T11:43:11.100Z,49.73
2023-08-20T11:46:17.205Z,49.27
2023-08-20T11:49:27.839Z,49.65
2023-08-20T11:52:33.340Z,46.23
2023-08-20T11:55:36.160Z,41.68
2023-08-20T11:58:37.698Z,38.16
2023-08-20T12:01:39.585Z,36.25
2023-08-20T12:04:43.029Z,36.23
2023-08-20T12:07:59.516Z,34.18
2023-08-20T12:11:03.178Z,33.86
2023-08-20T12:14:04.896Z,32.56
2023-08-20T12:17:07.656Z,32.79
2023-08-20T12:20:14.711Z,34.11
2023-08-20T12:23:17.679Z,32.73
2023-08-20T12:26:19.915Z,31.64
2023-08-20T12:29:23.311Z,30.47
2023-08-20T12:32:25.516Z,30.81
2023-08-20T12:35:27.200Z,29.41
2023-08-20T12:38:34.671Z,29.72
2023-08-20T12:41:39.905Z,29.89
2023-08-20T12:44:41.474Z,31.24
2023-08-20T12:47:43.104Z,31.56
2023-08-20T12:50:44.570Z,32.21
2023-08-20T12:53:46.511Z,30.73
2023-08-20T12:56:48.167Z,29.83
2023-08-20T12:59:49.827Z,31.55
2023-08-20T13:02:52.418Z,32.01
2023-08-20T13:05:54.347Z,31.70
2023-08-20T13:08:56.203Z,30.37
2023-08-20T13:11:59.737Z,28.40
2023-08-20T13:15:02.947Z,29.64
2023-08-20T13:18:05.376Z,29.22
2023-08-20T13:21:07.087Z,28.18
2023-08-20T13:24:09.965Z,27.51
2023-08-20T13:27:11.512Z,26.72
2023-08-20T13:30:14.194Z,26.83
2023-08-20T13:33:15.822Z,28.84
2023-08-20T13:36:17.512Z,29.06
2023-08-20T13:39:19.689Z,27.95
2023-08-20T13:42:22.776Z,27.97
2023-08-20T13:45:24.839Z,26.14
2023-08-20T13:48:26.505Z,26.46
2023-08-20T13:51:28.191Z,28.33
2023-08-20T13:54:29.712Z,27.02
2023-08-20T13:57:31.266Z,25.80
2023-08-20T14:00:32.930Z,27.35
2023-08-20T14:03:34.493Z,28.88
2023-08-20T14:06:36.140Z,27.18
2023-08-20T14:09:37.799Z,26.08
2023-08-20T14:12:41.005Z,26.22
2023-08-20T14:15:43.207Z,28.48
2023-08-20T14:18:44.944Z,33.61
2023-08-20T14:21:47.102Z,32.09
2023-08-20T14:24:48.756Z,31.65
2023-08-20T14:27:50.313Z,29.04
2023-08-20T14:30:57.628Z,28.49
2023-08-20T14:33:59.265Z,27.25
2023-08-20T14:37:00.816Z,26.66
2023-08-20T14:40:02.988Z,26.34
2023-08-20T14:43:04.857Z,26.11
2023-08-20T14:46:06.424Z,26.36
2023-08-20T14:49:08.068Z,25.11
2023-08-20T14:52:19.818Z,26.64
2023-08-20T14:55:22.658Z,26.79
2023-08-20T14:58:24.311Z,26.31
2023-08-20T15:01:25.980Z,26.98
2023-08-20T15:04:27.523Z,26.35
2023-08-20T15:07:29.077Z,25.85
2023-08-20T15:10:30.627Z,26.28
2023-08-20T15:13:32.925Z,28.03
2023-08-20T15:16:34.596Z,27.89
2023-08-20T15:19:36.404Z,27.03
2023-08-20T15:22:38.703Z,27.92
2023-08-20T15:25:41.028Z,27.01
2023-08-20T15:28:42.616Z,26.49
2023-08-20T15:31:44.257Z,27.53
2023-08-20T15:34:45.842Z,26.78
2023-08-20T15:37:47.484Z,27.82
2023-08-20T15:40:49.108Z,28.68
2023-08-20T15:43:50.663Z,28.77
2023-08-20T15:46:52.235Z,28.33
2023-08-20T15:49:53.983Z,28.17
2023-08-20T15:52:55.546Z,29.05
2023-08-20T15:55:57.100Z,30.22
2023-08-20T15:58:58.607Z,33.46
2023-08-20T16:02:00.306Z,36.63
2023-08-20T16:05:01.834Z,39.17
2023-08-20T16:08:03.468Z,41.37
2023-08-20T16:11:04.992Z,43.45
2023-08-20T16:14:06.642Z,44.87
2023-08-20T16:17:08.194Z,46.07
2023-08-20T16:20:10.459Z,46.77
2023-08-20T16:23:12.194Z,47.62
2023-08-20T16:26:13.911Z,48.29
2023-08-20T16:29:15.420Z,48.45
2023-08-20T16:32:17.096Z,48.86
2023-08-20T16:35:18.881Z,48.72
2023-08-20T16:38:20.802Z,49.55
2023-08-20T16:41:22.521Z,49.93
2023-08-20T16:44:24.200Z,50.16
2023-08-20T16:47:25.963Z,51.15
2023-08-20T16:50:27.627Z,51.67
2023-08-20T16:53:29.245Z,52.40
2023-08-20T16:56:31.110Z,53.07
2023-08-20T16:59:33.149Z,53.02
2023-08-20T17:02:36.412Z,53.64
2023-08-20T17:05:38.014Z,54.47
2023-08-20T17:08:39.674Z,55.03
2023-08-20T17:11:41.219Z,55.20
2023-08-20T17:14:43.389Z,56.56
2023-08-20T17:17:45.815Z,56.82
2023-08-20T17:20:47.403Z,57.41
2023-08-20T17:23:48.965Z,57.72
2023-08-20T17:26:50.522Z,58.42
2023-08-20T17:29:52.092Z,59.33
2023-08-20T17:32:53.771Z,60.81
2023-08-20T17:35:56.519Z,62.01
2023-08-20T17:38:59.638Z,61.70
2023-08-20T17:42:02.854Z,61.85
2023-08-20T17:45:04.834Z,63.47
2023-08-20T17:48:06.929Z,65.22
2023-08-20T17:51:08.618Z,65.91
2023-08-20T17:54:10.385Z,67.10
2023-08-20T17:57:11.925Z,67.74
2023-08-20T18:00:13.892Z,68.96
2023-08-20T18:03:15.718Z,69.83
2023-08-20T18:06:17.669Z,71.26
2023-08-20T18:09:19.817Z,72.87
2023-08-20T18:12:21.453Z,74.30
2023-08-20T18:15:23.012Z,75.78
2023-08-20T18:18:24.637Z,77.11
2023-08-20T18:21:26.263Z,78.59
2023-08-20T18:24:27.839Z,79.46
2023-08-20T18:27:29.735Z,80.62
2023-08-20T18:30:31.393Z,81.51
2023-08-20T18:33:33.533Z,82.58
2023-08-20T18:36:35.160Z,83.55
2023-08-20T18:39:36.763Z,84.88
2023-08-20T18:42:39.282Z,86.23
2023-08-20T18:45:41.302Z,86.73
2023-08-20T18:48:42.904Z,87.80
2023-08-20T18:51:44.495Z,88.77
2023-08-20T18:54:46.087Z,90.10
2023-08-20T18:57:47.601Z,91.26
2023-08-20T19:00:49.798Z,92.26
2023-08-20T19:03:52.144Z,93.20
2023-08-20T19:06:53.758Z,93.88
2023-08-20T19:09:56.453Z,94.77
2023-08-20T19:12:58.345Z,96.49
2023-08-20T19:16:00.025Z,97.11
2023-08-20T19:19:01.680Z,97.90
2023-08-20T19:22:03.224Z,99.07
2023-08-20T19:25:05.225Z,100.00
2023-08-20T19:28:10.456Z,100.00
2023-08-20T19:31:13.245Z,100.00
2023-08-20T19:34:14.885Z,100.00
2023-08-20T19:37:16.441Z,100.00
2023-08-20T19:40:18.012Z,100.00
2023-08-20T19:43:19.656Z,100.00
2023-08-20T19:46:21.218Z,100.00
2023-08-20T19:49:22.837Z,100.00
2023-08-20T19:52:25.033Z,100.00
2023-08-20T19:55:26.951Z,100.00
2023-08-20T19:58:28.554Z,100.00
2023-08-20T20:01:30.564Z,100.00
2023-08-20T20:04:32.271Z,100.00
2023-08-20T20:07:33.978Z,100.00
2023-08-20T20:10:35.968Z,100.00
2023-08-20T20:13:37.703Z,100.00
2023-08-20T20:16:39.311Z,100.00
2023-08-20T20:19:41.908Z,100.00
2023-08-20T20:22:46.313Z,100.00
2023-08-20T20:25:47.856Z,100.00
2023-08-20T20:28:49.512Z,100.00
2023-08-20T20:31:51.208Z,100.00
2023-08-20T20:34:53.199Z,100.00
2023-08-20T20:37:54.834Z,100.00
2023-08-20T20:40:56.426Z,100.00
2023-08-20T20:43:58.072Z,100.00
2023-08-20T20:46:59.631Z,100.00
2023-08-20T20:50:02.124Z,100.00
2023-08-20T20:53:04.619Z,100.00
2023-08-20T20:56:06.270Z,100.00
2023-08-20T20:59:08.063Z,100.00
2023-08-20T21:02:09.793Z,100.00
2023-08-20T21:05:11.799Z,100.00
2023-08-20T21:08:13.323Z,100.00
2023-08-20T21:11:14.974Z,100.00
2023-08-20T21:14:16.603Z,100.00
2023-08-20T21:17:18.398Z,100.00
2023-08-20T21:20:20.027Z,100.00
2023-08-20T21:23:22.002Z,100.00
2023-08-20T21:26:24.992Z,100.00
2023-08-20T21:29:26.531Z,100.00
2023-08-20T21:32:28.307Z,100.00
2023-08-20T21:35:30.653Z,100.00
2023-08-20T21:38:33.331Z,100.00
2023-08-20T21:41:35.605Z,100.00
2023-08-20T21:44:37.273Z,100.00
2023-08-20T21:47:40.353Z,100.00
2023-08-20T21:50:42.024Z,100.00
2023-08-20T21:53:44.622Z,100.00
2023-08-20T21:56:54.423Z,100.00
2023-08-20T21:59:57.030Z,100.00
2023-08-20T22:02:59.693Z,100.00
2023-08-20T22:06:02.284Z,100.00
2023-08-20T22:09:04.193Z,100.00
2023-08-20T22:12:06.034Z,100.00
2023-08-20T22:15:08.499Z,100.00
2023-08-20T22:18:10.297Z,100.00
2023-08-20T22:21:12.087Z,100.00
2023-08-20T22:24:21.442Z,100.00
2023-08-20T22:27:23.244Z,100.00
2023-08-20T22:30:25.067Z,100.00
2023-08-20T22:33:26.847Z,100.00
2023-08-20T22:36:28.459Z,100.00
2023-08-20T22:39:30.450Z,100.00
2023-08-20T22:42:32.034Z,100.00
2023-08-20T22:45:34.094Z,100.00
2023-08-20T22:48:36.055Z,100.00
2023-08-20T22:51:37.858Z,100.00
2023-08-20T22:54:40.654Z,100.00
2023-08-20T22:57:42.469Z,100.00
2023-08-20T23:00:44.267Z,100.00
2023-08-20T23:03:46.027Z,100.00
2023-08-20T23:06:48.071Z,100.00
2023-08-20T23:09:49.854Z,100.00
2023-08-20T23:12:51.689Z,100.00
2023-08-20T23:15:54.474Z,100.00
2023-08-20T23:18:56.177Z,100.00
2023-08-20T23:21:58.276Z,100.00
2023-08-20T23:25:00.124Z,100.00
2023-08-20T23:28:01.720Z,100.00
2023-08-20T23:31:07.247Z,100.00
2023-08-20T23:34:09.084Z,100.00
2023-08-20T23:37:11.325Z,100.00
2023-08-20T23:40:13.208Z,100.00
2023-08-20T23:43:15.258Z,100.00
2023-08-20T23:46:17.536Z,100.00
2023-08-20T23:49:19.293Z,100.00
2023-08-20T23:52:21.094Z,100.00
2023-08-20T23:55:22.896Z,100.00
2023-08-20T23:58:24.898Z,100.00
